This is the latest recevied weather packets stored in our database for station/object S50APT-10. If no packets are shown the sender has not sent any weather packets the latest 10 day(s).
| Time | Temp. | Humidity | Pressure | Rain* | Wind** | Luminosity | Snow |
|---|---|---|---|---|---|---|---|
| 1777483588 | 9.44° C | 69% | 1024.4 hPa | - | - | - | - |
| 1777482687 | 10° C | 67% | 1024.2 hPa | - | - | - | - |
| 1777481786 | 9.44° C | 68% | 1024.2 hPa | - | - | - | - |
| 1777480886 | 10.56° C | 62% | 1024.2 hPa | - | - | - | - |
| 1777479985 | 11.11° C | 58% | 1024.2 hPa | - | - | - | - |
| 1777479084 | 11.11° C | 58% | 1024.3 hPa | - | - | - | - |
| 1777478184 | 10.56° C | 60% | 1024.4 hPa | - | - | - | - |
| 1777477284 | 11.67° C | 56% | 1024.4 hPa | - | - | - | - |
| 1777476383 | 11.11° C | 58% | 1024.4 hPa | - | - | - | - |
| 1777475483 | 12.78° C | 42% | 1024.5 hPa | - | - | - | - |
| 1777474582 | 14.44° C | 43% | 1024.6 hPa | - | - | - | - |
| 1777473682 | 14.44° C | 40% | 1024.6 hPa | - | - | - | - |
| 1777472781 | 13.89° C | 41% | 1024.6 hPa | - | - | - | - |
| 1777471880 | 13.89° C | 41% | 1024.6 hPa | - | - | - | - |
| 1777470980 | 14.44° C | 40% | 1024.6 hPa | - | - | - | - |
| 1777470079 | 13.89° C | 40% | 1024.6 hPa | - | - | - | - |
| 1777469179 | 12.22° C | 41% | 1024.7 hPa | - | - | - | - |
| 1777468278 | 13.89° C | 41% | 1024.7 hPa | - | - | - | - |
| 1777467377 | 13.33° C | 45% | 1024.7 hPa | - | - | - | - |
| 1777466476 | 12.22° C | 46% | 1024.8 hPa | - | - | - | - |
| 1777465576 | 13.33° C | 42% | 1024.8 hPa | - | - | - | - |
| 1777464675 | 12.22° C | 45% | 1024.8 hPa | - | - | - | - |
| 1777463774 | 12.22° C | 43% | 1024.9 hPa | - | - | - | - |
| 1777462872 | 14.44° C | 37% | 1024.9 hPa | - | - | - | - |
| 1777461971 | 14.44° C | 37% | 1024.8 hPa | - | - | - | - |
* Rain since midnight (hover to see other rain measurements)
** Current wind speed in m/s (hover to see current wind gust speed)